sensor_id;sensor_type;location;lat;lon;timestamp;pressure;altitude;pressure_sealevel;temperature;humidity
10460;BME280;54412;51.206;6.888;2023-05-10T00:01:25;100105.34;;;15.80;88.50
10460;BME280;54412;51.206;6.888;2023-05-10T00:03:51;100100.28;;;15.77;89.38
10460;BME280;54412;51.206;6.888;2023-05-10T00:06:17;100093.38;;;15.75;88.82
10460;BME280;54412;51.206;6.888;2023-05-10T00:08:43;100099.06;;;15.70;89.02
10460;BME280;54412;51.206;6.888;2023-05-10T00:11:08;100103.19;;;15.52;89.75
10460;BME280;54412;51.206;6.888;2023-05-10T00:13:34;100101.34;;;15.86;89.15
10460;BME280;54412;51.206;6.888;2023-05-10T00:16:00;100097.84;;;15.74;89.08
10460;BME280;54412;51.206;6.888;2023-05-10T00:18:25;100097.28;;;15.59;89.96
10460;BME280;54412;51.206;6.888;2023-05-10T00:20:51;100098.56;;;15.76;88.81
10460;BME280;54412;51.206;6.888;2023-05-10T00:23:17;100103.53;;;15.69;90.02
10460;BME280;54412;51.206;6.888;2023-05-10T00:25:42;100096.75;;;15.65;89.65
10460;BME280;54412;51.206;6.888;2023-05-10T00:28:08;100098.34;;;15.68;89.96
10460;BME280;54412;51.206;6.888;2023-05-10T00:30:34;100097.28;;;15.59;90.28
10460;BME280;54412;51.206;6.888;2023-05-10T00:32:59;100097.22;;;15.82;89.30
10460;BME280;54412;51.206;6.888;2023-05-10T00:35:25;100096.28;;;15.60;90.12
10460;BME280;54412;51.206;6.888;2023-05-10T00:37:51;100101.22;;;15.76;89.75
10460;BME280;54412;51.206;6.888;2023-05-10T00:40:17;100088.44;;;15.59;90.21
10460;BME280;54412;51.206;6.888;2023-05-10T00:42:42;100087.25;;;15.63;89.81
10460;BME280;54412;51.206;6.888;2023-05-10T00:45:08;100091.81;;;15.61;90.34
10460;BME280;54412;51.206;6.888;2023-05-10T00:47:35;100090.72;;;15.63;90.84
10460;BME280;54412;51.206;6.888;2023-05-10T00:50:02;100089.28;;;15.59;90.29
10460;BME280;54412;51.206;6.888;2023-05-10T00:52:29;100091.69;;;15.74;89.99
10460;BME280;54412;51.206;6.888;2023-05-10T00:54:55;100092.78;;;15.49;91.09
10460;BME280;54412;51.206;6.888;2023-05-10T00:57:22;100092.75;;;15.38;91.71
10460;BME280;54412;51.206;6.888;2023-05-10T00:59:48;100096.53;;;15.57;91.29
10460;BME280;54412;51.206;6.888;2023-05-10T01:02:14;100102.09;;;15.43;91.45
10460;BME280;54412;51.206;6.888;2023-05-10T01:04:40;100093.09;;;15.33;92.16
10460;BME280;54412;51.206;6.888;2023-05-10T01:07:06;100095.44;;;15.49;90.54
10460;BME280;54412;51.206;6.888;2023-05-10T01:09:33;100090.75;;;15.41;89.53
10460;BME280;54412;51.206;6.888;2023-05-10T01:12:00;100106.50;;;15.21;90.84
10460;BME280;54412;51.206;6.888;2023-05-10T01:14:27;100092.38;;;15.31;91.10
10460;BME280;54412;51.206;6.888;2023-05-10T01:16:54;100094.22;;;15.42;91.32
10460;BME280;54412;51.206;6.888;2023-05-10T01:19:26;100103.66;;;15.57;91.06
10460;BME280;54412;51.206;6.888;2023-05-10T01:33:43;100112.59;;;15.67;89.41
10460;BME280;54412;51.206;6.888;2023-05-10T01:36:30;100102.34;;;15.62;88.82
10460;BME280;54412;51.206;6.888;2023-05-10T01:39:11;100107.28;;;15.67;88.48
10460;BME280;54412;51.206;6.888;2023-05-10T01:44:59;100106.66;;;15.63;88.90
10460;BME280;54412;51.206;6.888;2023-05-10T01:50:03;100111.97;;;15.63;89.56
10460;BME280;54412;51.206;6.888;2023-05-10T01:52:35;100111.25;;;15.61;88.84
10460;BME280;54412;51.206;6.888;2023-05-10T01:55:06;100109.19;;;15.65;89.05
10460;BME280;54412;51.206;6.888;2023-05-10T01:57:36;100119.94;;;15.52;89.77
10460;BME280;54412;51.206;6.888;2023-05-10T02:00:04;100119.59;;;15.57;89.52
10460;BME280;54412;51.206;6.888;2023-05-10T02:02:37;100121.31;;;15.47;90.12
10460;BME280;54412;51.206;6.888;2023-05-10T02:05:05;100122.00;;;15.60;90.22
10460;BME280;54412;51.206;6.888;2023-05-10T02:07:35;100117.91;;;15.45;89.35
10460;BME280;54412;51.206;6.888;2023-05-10T02:10:05;100110.53;;;15.70;88.56
10460;BME280;54412;51.206;6.888;2023-05-10T02:12:36;100116.88;;;15.35;89.39
10460;BME280;54412;51.206;6.888;2023-05-10T02:15:05;100118.13;;;15.42;89.69
10460;BME280;54412;51.206;6.888;2023-05-10T02:17:34;100116.09;;;15.45;89.66
10460;BME280;54412;51.206;6.888;2023-05-10T02:20:01;100124.91;;;15.46;90.15
10460;BME280;54412;51.206;6.888;2023-05-10T02:22:29;100133.63;;;15.48;89.77
10460;BME280;54412;51.206;6.888;2023-05-10T02:24:59;100130.22;;;15.46;89.83
10460;BME280;54412;51.206;6.888;2023-05-10T02:27:27;100128.25;;;15.37;90.11
10460;BME280;54412;51.206;6.888;2023-05-10T02:29:54;100130.59;;;15.52;90.17
10460;BME280;54412;51.206;6.888;2023-05-10T02:32:24;100135.44;;;15.58;89.63
10460;BME280;54412;51.206;6.888;2023-05-10T02:34:53;100141.47;;;15.49;89.29
10460;BME280;54412;51.206;6.888;2023-05-10T02:37:21;100133.38;;;15.51;89.32
10460;BME280;54412;51.206;6.888;2023-05-10T02:39:50;100134.56;;;15.58;89.04
10460;BME280;54412;51.206;6.888;2023-05-10T02:42:19;100136.09;;;15.38;89.90
10460;BME280;54412;51.206;6.888;2023-05-10T02:44:51;100143.13;;;15.39;89.97
10460;BME280;54412;51.206;6.888;2023-05-10T02:47:19;100143.63;;;15.44;89.02
10460;BME280;54412;51.206;6.888;2023-05-10T02:49:45;100148.59;;;15.49;88.83
10460;BME280;54412;51.206;6.888;2023-05-10T02:52:19;100145.06;;;15.37;89.71
10460;BME280;54412;51.206;6.888;2023-05-10T02:54:50;100142.06;;;15.53;89.37
10460;BME280;54412;51.206;6.888;2023-05-10T02:57:26;100143.66;;;15.55;88.99
10460;BME280;54412;51.206;6.888;2023-05-10T02:59:52;100137.72;;;15.41;89.99
10460;BME280;54412;51.206;6.888;2023-05-10T03:02:19;100137.16;;;15.59;89.41
10460;BME280;54412;51.206;6.888;2023-05-10T03:04:45;100135.78;;;15.43;88.97
10460;BME280;54412;51.206;6.888;2023-05-10T03:07:11;100147.84;;;15.36;90.06
10460;BME280;54412;51.206;6.888;2023-05-10T03:09:37;100146.59;;;15.40;89.54
10460;BME280;54412;51.206;6.888;2023-05-10T03:12:27;100152.59;;;15.43;89.77
10460;BME280;54412;51.206;6.888;2023-05-10T03:18:11;100149.56;;;15.48;89.37
10460;BME280;54412;51.206;6.888;2023-05-10T03:20:53;100146.84;;;15.37;90.23
10460;BME280;54412;51.206;6.888;2023-05-10T03:26:07;100145.31;;;15.45;89.95
10460;BME280;54412;51.206;6.888;2023-05-10T03:28:35;100150.53;;;15.58;89.34
10460;BME280;54412;51.206;6.888;2023-05-10T03:31:04;100159.94;;;15.51;89.96
10460;BME280;54412;51.206;6.888;2023-05-10T03:33:30;100151.75;;;15.43;90.00
10460;BME280;54412;51.206;6.888;2023-05-10T03:35:57;100150.94;;;15.30;90.28
10460;BME280;54412;51.206;6.888;2023-05-10T03:38:22;100160.06;;;15.49;89.83
10460;BME280;54412;51.206;6.888;2023-05-10T03:40:48;100157.91;;;15.43;90.08
10460;BME280;54412;51.206;6.888;2023-05-10T03:43:14;100161.16;;;15.58;89.39
10460;BME280;54412;51.206;6.888;2023-05-10T03:45:39;100162.56;;;15.40;89.93
10460;BME280;54412;51.206;6.888;2023-05-10T03:48:05;100164.84;;;15.33;89.92
10460;BME280;54412;51.206;6.888;2023-05-10T03:50:31;100165.31;;;15.27;90.19
10460;BME280;54412;51.206;6.888;2023-05-10T03:52:57;100170.00;;;15.24;91.17
10460;BME280;54412;51.206;6.888;2023-05-10T03:55:23;100174.97;;;15.28;89.99
10460;BME280;54412;51.206;6.888;2023-05-10T03:57:49;100166.25;;;15.15;91.44
10460;BME280;54412;51.206;6.888;2023-05-10T04:00:19;100175.13;;;15.38;90.87
10460;BME280;54412;51.206;6.888;2023-05-10T04:02:45;100171.47;;;15.28;90.41
10460;BME280;54412;51.206;6.888;2023-05-10T04:05:11;100177.34;;;15.20;90.69
10460;BME280;54412;51.206;6.888;2023-05-10T04:07:36;100180.63;;;15.24;91.45
10460;BME280;54412;51.206;6.888;2023-05-10T04:10:02;100176.09;;;15.37;91.42
10460;BME280;54412;51.206;6.888;2023-05-10T04:12:28;100178.06;;;15.46;91.00
10460;BME280;54412;51.206;6.888;2023-05-10T04:14:53;100173.06;;;15.30;91.19
10460;BME280;54412;51.206;6.888;2023-05-10T04:17:19;100176.91;;;15.26;91.32
10460;BME280;54412;51.206;6.888;2023-05-10T04:19:45;100174.50;;;15.23;91.43
10460;BME280;54412;51.206;6.888;2023-05-10T04:22:10;100178.50;;;15.29;90.88
10460;BME280;54412;51.206;6.888;2023-05-10T04:24:36;100175.00;;;15.39;90.92
10460;BME280;54412;51.206;6.888;2023-05-10T04:27:02;100174.06;;;15.40;91.16
10460;BME280;54412;51.206;6.888;2023-05-10T04:29:27;100175.78;;;15.52;90.77
10460;BME280;54412;51.206;6.888;2023-05-10T04:31:53;100179.88;;;15.45;91.00
10460;BME280;54412;51.206;6.888;2023-05-10T04:34:20;100171.28;;;15.42;90.82
10460;BME280;54412;51.206;6.888;2023-05-10T04:36:46;100169.59;;;15.41;90.73
10460;BME280;54412;51.206;6.888;2023-05-10T04:39:12;100172.09;;;15.31;91.26
10460;BME280;54412;51.206;6.888;2023-05-10T04:41:39;100168.47;;;15.32;91.39
10460;BME280;54412;51.206;6.888;2023-05-10T04:44:04;100172.13;;;15.42;91.06
10460;BME280;54412;51.206;6.888;2023-05-10T04:46:30;100181.75;;;15.32;91.83
10460;BME280;54412;51.206;6.888;2023-05-10T04:48:56;100178.44;;;15.41;91.25
10460;BME280;54412;51.206;6.888;2023-05-10T04:51:21;100182.03;;;15.40;90.59
10460;BME280;54412;51.206;6.888;2023-05-10T04:53:47;100179.69;;;15.59;89.82
10460;BME280;54412;51.206;6.888;2023-05-10T04:56:12;100184.47;;;15.54;89.74
10460;BME280;54412;51.206;6.888;2023-05-10T04:58:38;100185.81;;;15.60;90.11
10460;BME280;54412;51.206;6.888;2023-05-10T05:01:07;100188.97;;;15.65;89.81
10460;BME280;54412;51.206;6.888;2023-05-10T05:03:34;100195.25;;;15.64;89.88
10460;BME280;54412;51.206;6.888;2023-05-10T05:06:00;100195.72;;;15.58;90.07
10460;BME280;54412;51.206;6.888;2023-05-10T05:08:26;100201.03;;;15.58;90.32
10460;BME280;54412;51.206;6.888;2023-05-10T05:10:51;100203.22;;;15.64;89.84
10460;BME280;54412;51.206;6.888;2023-05-10T05:13:17;100206.88;;;15.63;90.41
10460;BME280;54412;51.206;6.888;2023-05-10T05:15:43;100199.84;;;15.73;90.40
10460;BME280;54412;51.206;6.888;2023-05-10T05:18:08;100205.19;;;15.73;90.36
10460;BME280;54412;51.206;6.888;2023-05-10T05:20:34;100206.38;;;15.69;90.01
10460;BME280;54412;51.206;6.888;2023-05-10T05:23:00;100208.28;;;15.67;89.71
10460;BME280;54412;51.206;6.888;2023-05-10T05:25:26;100207.84;;;15.73;89.95
10460;BME280;54412;51.206;6.888;2023-05-10T05:27:52;100217.16;;;15.79;89.31
10460;BME280;54412;51.206;6.888;2023-05-10T05:30:17;100219.94;;;15.88;89.06
10460;BME280;54412;51.206;6.888;2023-05-10T05:32:43;100214.75;;;15.76;90.20
10460;BME280;54412;51.206;6.888;2023-05-10T05:35:09;100221.28;;;15.83;89.55
10460;BME280;54412;51.206;6.888;2023-05-10T05:37:34;100217.28;;;15.77;89.48
10460;BME280;54412;51.206;6.888;2023-05-10T05:40:01;100224.97;;;15.69;90.42
10460;BME280;54412;51.206;6.888;2023-05-10T05:42:27;100230.91;;;15.84;90.33
10460;BME280;54412;51.206;6.888;2023-05-10T05:44:53;100227.66;;;15.80;88.98
10460;BME280;54412;51.206;6.888;2023-05-10T05:47:18;100228.97;;;15.75;89.30
10460;BME280;54412;51.206;6.888;2023-05-10T05:49:44;100238.75;;;15.74;89.54
10460;BME280;54412;51.206;6.888;2023-05-10T05:52:12;100235.16;;;15.75;89.68
10460;BME280;54412;51.206;6.888;2023-05-10T05:54:39;100236.59;;;15.68;89.29
10460;BME280;54412;51.206;6.888;2023-05-10T05:57:05;100238.88;;;15.73;88.91
10460;BME280;54412;51.206;6.888;2023-05-10T05:59:30;100242.28;;;15.75;88.45
10460;BME280;54412;51.206;6.888;2023-05-10T06:01:56;100240.00;;;15.81;87.83
10460;BME280;54412;51.206;6.888;2023-05-10T06:04:22;100248.44;;;15.75;87.89
10460;BME280;54412;51.206;6.888;2023-05-10T06:06:48;100250.97;;;15.77;87.78
10460;BME280;54412;51.206;6.888;2023-05-10T06:09:13;100252.69;;;15.78;86.85
10460;BME280;54412;51.206;6.888;2023-05-10T06:11:39;100253.41;;;15.68;87.49
10460;BME280;54412;51.206;6.888;2023-05-10T06:14:05;100260.34;;;15.47;88.84
10460;BME280;54412;51.206;6.888;2023-05-10T06:16:33;100267.41;;;15.59;88.65
10460;BME280;54412;51.206;6.888;2023-05-10T06:18:58;100254.50;;;15.77;87.27
10460;BME280;54412;51.206;6.888;2023-05-10T06:21:24;100263.66;;;15.73;87.50
10460;BME280;54412;51.206;6.888;2023-05-10T06:23:50;100260.91;;;15.86;86.04
10460;BME280;54412;51.206;6.888;2023-05-10T06:26:16;100275.94;;;15.52;86.63
10460;BME280;54412;51.206;6.888;2023-05-10T06:28:42;100270.13;;;15.47;87.88
10460;BME280;54412;51.206;6.888;2023-05-10T06:31:08;100281.59;;;15.47;88.11
10460;BME280;54412;51.206;6.888;2023-05-10T06:33:34;100285.75;;;15.62;86.48
10460;BME280;54412;51.206;6.888;2023-05-10T06:35:59;100280.97;;;15.44;88.06
10460;BME280;54412;51.206;6.888;2023-05-10T06:38:25;100281.97;;;15.43;86.84
10460;BME280;54412;51.206;6.888;2023-05-10T06:40:51;100281.50;;;15.25;88.00
10460;BME280;54412;51.206;6.888;2023-05-10T06:43:17;100286.56;;;15.28;88.34
10460;BME280;54412;51.206;6.888;2023-05-10T06:45:43;100291.72;;;15.42;88.20
10460;BME280;54412;51.206;6.888;2023-05-10T06:48:08;100286.81;;;15.25;89.25
10460;BME280;54412;51.206;6.888;2023-05-10T06:50:34;100289.81;;;15.44;88.41
10460;BME280;54412;51.206;6.888;2023-05-10T06:53:01;100291.31;;;15.59;87.37
10460;BME280;54412;51.206;6.888;2023-05-10T06:55:27;100296.53;;;15.37;88.39
10460;BME280;54412;51.206;6.888;2023-05-10T06:57:54;100295.28;;;15.30;89.19
10460;BME280;54412;51.206;6.888;2023-05-10T07:00:20;100295.41;;;15.29;89.21
10460;BME280;54412;51.206;6.888;2023-05-10T07:02:46;100301.84;;;15.37;89.20
10460;BME280;54412;51.206;6.888;2023-05-10T07:05:12;100298.56;;;15.57;87.58
10460;BME280;54412;51.206;6.888;2023-05-10T07:07:38;100304.00;;;15.32;88.61
10460;BME280;54412;51.206;6.888;2023-05-10T07:10:04;100294.59;;;15.39;88.83
10460;BME280;54412;51.206;6.888;2023-05-10T07:12:30;100304.19;;;15.29;88.67
10460;BME280;54412;51.206;6.888;2023-05-10T07:14:56;100308.69;;;15.29;89.01
10460;BME280;54412;51.206;6.888;2023-05-10T07:17:21;100305.34;;;15.38;88.85
10460;BME280;54412;51.206;6.888;2023-05-10T07:19:47;100302.53;;;15.52;87.74
10460;BME280;54412;51.206;6.888;2023-05-10T07:22:14;100296.09;;;15.31;89.26
10460;BME280;54412;51.206;6.888;2023-05-10T07:24:40;100301.72;;;15.39;90.21
10460;BME280;54412;51.206;6.888;2023-05-10T07:27:06;100302.91;;;15.35;89.37
10460;BME280;54412;51.206;6.888;2023-05-10T07:29:33;100306.41;;;15.35;90.20
10460;BME280;54412;51.206;6.888;2023-05-10T07:31:58;100307.78;;;15.41;89.49
10460;BME280;54412;51.206;6.888;2023-05-10T07:34:24;100314.72;;;15.54;88.99
10460;BME280;54412;51.206;6.888;2023-05-10T07:36:52;100306.88;;;15.53;89.16
10460;BME280;54412;51.206;6.888;2023-05-10T07:39:17;100313.81;;;15.66;88.88
10460;BME280;54412;51.206;6.888;2023-05-10T07:41:43;100305.66;;;15.92;87.89
10460;BME280;54412;51.206;6.888;2023-05-10T07:44:09;100313.72;;;15.79;87.40
10460;BME280;54412;51.206;6.888;2023-05-10T07:46:34;100317.34;;;15.78;88.10
10460;BME280;54412;51.206;6.888;2023-05-10T07:49:01;100315.78;;;15.76;88.00
10460;BME280;54412;51.206;6.888;2023-05-10T07:51:26;100320.88;;;15.90;86.66
10460;BME280;54412;51.206;6.888;2023-05-10T07:53:53;100317.75;;;16.07;87.31
10460;BME280;54412;51.206;6.888;2023-05-10T07:56:27;100321.84;;;15.89;88.69
10460;BME280;54412;51.206;6.888;2023-05-10T07:58:56;100320.31;;;15.97;89.32
10460;BME280;54412;51.206;6.888;2023-05-10T08:01:22;100324.88;;;15.95;87.17
10460;BME280;54412;51.206;6.888;2023-05-10T08:03:48;100323.88;;;15.85;87.02
10460;BME280;54412;51.206;6.888;2023-05-10T08:06:17;100323.38;;;15.80;87.62
10460;BME280;54412;51.206;6.888;2023-05-10T08:08:45;100322.34;;;15.94;88.48
10460;BME280;54412;51.206;6.888;2023-05-10T08:11:17;100326.97;;;16.25;87.26
10460;BME280;54412;51.206;6.888;2023-05-10T08:13:45;100326.97;;;16.25;86.60
10460;BME280;54412;51.206;6.888;2023-05-10T08:16:11;100319.97;;;16.24;86.19
10460;BME280;54412;51.206;6.888;2023-05-10T08:18:37;100330.84;;;16.32;85.81
10460;BME280;54412;51.206;6.888;2023-05-10T08:21:04;100337.75;;;16.34;86.31
10460;BME280;54412;51.206;6.888;2023-05-10T08:23:29;100345.00;;;16.32;85.50
10460;BME280;54412;51.206;6.888;2023-05-10T08:25:55;100342.81;;;16.26;84.99
10460;BME280;54412;51.206;6.888;2023-05-10T08:28:21;100342.63;;;16.40;85.65
10460;BME280;54412;51.206;6.888;2023-05-10T08:30:46;100343.56;;;16.39;84.27
10460;BME280;54412;51.206;6.888;2023-05-10T08:33:12;100347.22;;;16.38;84.56
10460;BME280;54412;51.206;6.888;2023-05-10T08:35:38;100346.50;;;16.47;84.44
10460;BME280;54412;51.206;6.888;2023-05-10T08:38:03;100358.59;;;16.62;83.58
10460;BME280;54412;51.206;6.888;2023-05-10T08:40:29;100352.66;;;16.48;82.86
10460;BME280;54412;51.206;6.888;2023-05-10T08:43:06;100347.22;;;16.38;84.47
10460;BME280;54412;51.206;6.888;2023-05-10T08:45:37;100352.91;;;16.56;83.93
10460;BME280;54412;51.206;6.888;2023-05-10T08:48:06;100350.13;;;16.57;82.56
10460;BME280;54412;51.206;6.888;2023-05-10T08:50:36;100364.00;;;16.39;83.79
10460;BME280;54412;51.206;6.888;2023-05-10T08:53:12;100360.66;;;16.59;82.97
10460;BME280;54412;51.206;6.888;2023-05-10T08:55:39;100367.31;;;16.64;81.84
10460;BME280;54412;51.206;6.888;2023-05-10T08:58:08;100368.19;;;16.76;82.02
10460;BME280;54412;51.206;6.888;2023-05-10T09:00:35;100368.25;;;16.86;81.37
10460;BME280;54412;51.206;6.888;2023-05-10T09:03:04;100375.66;;;16.93;81.11
10460;BME280;54412;51.206;6.888;2023-05-10T09:05:30;100375.31;;;16.98;81.74
10460;BME280;54412;51.206;6.888;2023-05-10T09:07:56;100374.44;;;16.97;81.12
10460;BME280;54412;51.206;6.888;2023-05-10T09:10:23;100377.75;;;16.67;81.35
10460;BME280;54412;51.206;6.888;2023-05-10T09:12:53;100377.50;;;16.70;80.98
10460;BME280;54412;51.206;6.888;2023-05-10T09:15:19;100383.69;;;16.60;81.27
10460;BME280;54412;51.206;6.888;2023-05-10T09:17:47;100383.81;;;16.58;80.77
10460;BME280;54412;51.206;6.888;2023-05-10T09:20:12;100385.00;;;16.54;80.26
10460;BME280;54412;51.206;6.888;2023-05-10T09:22:38;100392.03;;;16.21;80.48
10460;BME280;54412;51.206;6.888;2023-05-10T09:25:12;100396.13;;;16.03;80.48
10460;BME280;54412;51.206;6.888;2023-05-10T09:27:41;100391.63;;;16.03;81.82
10460;BME280;54412;51.206;6.888;2023-05-10T09:30:08;100397.13;;;16.13;82.12
10460;BME280;54412;51.206;6.888;2023-05-10T09:32:42;100395.19;;;16.15;79.00
10460;BME280;54412;51.206;6.888;2023-05-10T09:35:12;100398.94;;;16.23;78.58
10460;BME280;54412;51.206;6.888;2023-05-10T09:37:44;100405.34;;;16.10;77.96
10460;BME280;54412;51.206;6.888;2023-05-10T09:40:18;100402.84;;;15.96;77.36
10460;BME280;54412;51.206;6.888;2023-05-10T09:43:07;100403.94;;;15.93;79.11
10460;BME280;54412;51.206;6.888;2023-05-10T09:45:35;100406.34;;;16.31;78.41
10460;BME280;54412;51.206;6.888;2023-05-10T09:48:02;100404.75;;;16.28;78.02
10460;BME280;54412;51.206;6.888;2023-05-10T09:50:29;100409.63;;;16.34;80.07
10460;BME280;54412;51.206;6.888;2023-05-10T09:53:03;100419.19;;;16.37;78.27
10460;BME280;54412;51.206;6.888;2023-05-10T09:55:44;100417.91;;;16.53;77.88
10460;BME280;54412;51.206;6.888;2023-05-10T09:58:12;100411.25;;;16.59;76.46
10460;BME280;54412;51.206;6.888;2023-05-10T10:00:43;100408.13;;;16.65;77.57
10460;BME280;54412;51.206;6.888;2023-05-10T10:03:14;100408.09;;;16.98;76.32
10460;BME280;54412;51.206;6.888;2023-05-10T10:05:42;100405.09;;;17.03;75.87
10460;BME280;54412;51.206;6.888;2023-05-10T10:08:09;100415.41;;;16.96;73.97
10460;BME280;54412;51.206;6.888;2023-05-10T10:10:35;100418.88;;;16.52;75.71
10460;BME280;54412;51.206;6.888;2023-05-10T10:13:01;100415.25;;;16.53;75.84
10460;BME280;54412;51.206;6.888;2023-05-10T10:15:27;100413.44;;;16.65;75.87
10460;BME280;54412;51.206;6.888;2023-05-10T10:17:54;100416.94;;;16.54;76.94
10460;BME280;54412;51.206;6.888;2023-05-10T10:20:22;100414.16;;;16.56;76.92
10460;BME280;54412;51.206;6.888;2023-05-10T10:22:48;100423.50;;;16.61;75.07
10460;BME280;54412;51.206;6.888;2023-05-10T10:25:19;100431.09;;;16.55;75.25
10460;BME280;54412;51.206;6.888;2023-05-10T10:30:45;100431.41;;;16.39;75.71
10460;BME280;54412;51.206;6.888;2023-05-10T10:33:40;100433.81;;;16.42;75.94
10460;BME280;54412;51.206;6.888;2023-05-10T10:36:15;100435.22;;;16.59;76.29
10460;BME280;54412;51.206;6.888;2023-05-10T10:44:35;100434.38;;;17.25;74.98
10460;BME280;54412;51.206;6.888;2023-05-10T10:52:21;100429.06;;;17.79;71.87
10460;BME280;54412;51.206;6.888;2023-05-10T10:57:19;100430.91;;;17.67;69.22
10460;BME280;54412;51.206;6.888;2023-05-10T10:59:47;100436.09;;;17.68;70.63
10460;BME280;54412;51.206;6.888;2023-05-10T11:02:55;100436.88;;;17.91;70.73
10460;BME280;54412;51.206;6.888;2023-05-10T11:08:01;100437.44;;;17.63;71.22
10460;BME280;54412;51.206;6.888;2023-05-10T11:10:32;100438.09;;;17.55;71.61
10460;BME280;54412;51.206;6.888;2023-05-10T11:13:05;100439.97;;;17.75;70.15
10460;BME280;54412;51.206;6.888;2023-05-10T11:15:38;100433.97;;;17.40;70.57
10460;BME280;54412;51.206;6.888;2023-05-10T11:18:28;100441.66;;;17.12;72.78
10460;BME280;54412;51.206;6.888;2023-05-10T11:21:00;100449.25;;;17.16;71.09
10460;BME280;54412;51.206;6.888;2023-05-10T11:26:08;100442.72;;;17.20;71.21
10460;BME280;54412;51.206;6.888;2023-05-10T11:28:48;100448.31;;;16.84;71.82
10460;BME280;54412;51.206;6.888;2023-05-10T11:31:16;100450.84;;;16.97;71.51
10460;BME280;54412;51.206;6.888;2023-05-10T11:33:50;100448.91;;;16.99;72.54
10460;BME280;54412;51.206;6.888;2023-05-10T11:36:24;100450.72;;;16.98;72.82
10460;BME280;54412;51.206;6.888;2023-05-10T11:38:52;100458.38;;;17.25;72.08
10460;BME280;54412;51.206;6.888;2023-05-10T11:41:19;100471.44;;;17.28;72.45
10460;BME280;54412;51.206;6.888;2023-05-10T11:43:54;100462.50;;;17.07;70.42
10460;BME280;54412;51.206;6.888;2023-05-10T11:46:22;100464.78;;;17.22;70.92
10460;BME280;54412;51.206;6.888;2023-05-10T11:48:51;100459.69;;;17.19;70.66
10460;BME280;54412;51.206;6.888;2023-05-10T11:51:25;100458.38;;;17.25;70.19
10460;BME280;54412;51.206;6.888;2023-05-10T11:53:56;100457.13;;;17.29;71.82
10460;BME280;54412;51.206;6.888;2023-05-10T11:56:22;100455.19;;;17.42;71.49
10460;BME280;54412;51.206;6.888;2023-05-10T11:58:57;100463.53;;;17.59;71.10
10460;BME280;54412;51.206;6.888;2023-05-10T12:01:27;100461.69;;;17.71;71.17
10460;BME280;54412;51.206;6.888;2023-05-10T12:03:56;100463.91;;;17.55;72.51
10460;BME280;54412;51.206;6.888;2023-05-10T12:06:28;100462.69;;;17.70;71.99
10460;BME280;54412;51.206;6.888;2023-05-10T12:08:54;100471.16;;;17.64;71.17
10460;BME280;54412;51.206;6.888;2023-05-10T12:11:25;100467.03;;;17.71;70.42
10460;BME280;54412;51.206;6.888;2023-05-10T12:13:51;100467.47;;;17.87;70.41
10460;BME280;54412;51.206;6.888;2023-05-10T12:16:28;100459.19;;;17.90;67.14
10460;BME280;54412;51.206;6.888;2023-05-10T12:18:58;100459.88;;;17.71;67.62
10460;BME280;54412;51.206;6.888;2023-05-10T12:21:25;100468.31;;;17.88;68.74
10460;BME280;54412;51.206;6.888;2023-05-10T12:23:59;100473.44;;;17.68;70.50
10460;BME280;54412;51.206;6.888;2023-05-10T12:26:27;100484.47;;;17.75;69.84
10460;BME280;54412;51.206;6.888;2023-05-10T12:28:54;100474.19;;;17.59;69.74
10460;BME280;54412;51.206;6.888;2023-05-10T12:31:20;100475.69;;;17.30;69.30
10460;BME280;54412;51.206;6.888;2023-05-10T12:33:46;100473.50;;;17.57;68.96
10460;BME280;54412;51.206;6.888;2023-05-10T12:36:16;100468.66;;;17.29;70.70
10460;BME280;54412;51.206;6.888;2023-05-10T12:38:45;100479.81;;;17.23;72.02
10460;BME280;54412;51.206;6.888;2023-05-10T12:41:18;100482.72;;;17.20;70.79
10460;BME280;54412;51.206;6.888;2023-05-10T12:43:44;100484.75;;;17.39;71.32
10460;BME280;54412;51.206;6.888;2023-05-10T12:46:16;100484.75;;;17.39;71.01
10460;BME280;54412;51.206;6.888;2023-05-10T12:48:43;100483.31;;;17.24;70.84
10460;BME280;54412;51.206;6.888;2023-05-10T12:51:11;100487.19;;;17.20;71.60
10460;BME280;54412;51.206;6.888;2023-05-10T12:53:42;100487.19;;;17.20;72.40
10460;BME280;54412;51.206;6.888;2023-05-10T12:56:08;100493.16;;;17.23;72.05
10460;BME280;54412;51.206;6.888;2023-05-10T12:58:34;100492.53;;;16.98;72.84
10460;BME280;54412;51.206;6.888;2023-05-10T13:01:00;100492.16;;;17.02;73.81
10460;BME280;54412;51.206;6.888;2023-05-10T13:03:26;100496.41;;;16.94;75.77
10460;BME280;54412;51.206;6.888;2023-05-10T13:05:52;100501.47;;;16.86;76.75
10460;BME280;54412;51.206;6.888;2023-05-10T13:08:17;100501.13;;;16.90;77.47
10460;BME280;54412;51.206;6.888;2023-05-10T13:10:43;100505.91;;;16.63;78.11
10460;BME280;54412;51.206;6.888;2023-05-10T13:13:09;100499.28;;;16.80;78.34
10460;BME280;54412;51.206;6.888;2023-05-10T13:15:35;100507.63;;;16.75;78.19
10460;BME280;54412;51.206;6.888;2023-05-10T13:18:01;100507.88;;;16.83;77.28
10460;BME280;54412;51.206;6.888;2023-05-10T13:20:27;100507.28;;;16.80;76.84
10460;BME280;54412;51.206;6.888;2023-05-10T13:22:53;100497.81;;;16.76;76.92
10460;BME280;54412;51.206;6.888;2023-05-10T13:25:19;100504.59;;;16.68;75.32
10460;BME280;54412;51.206;6.888;2023-05-10T13:27:45;100502.78;;;16.69;76.43
10460;BME280;54412;51.206;6.888;2023-05-10T13:30:11;100502.53;;;16.72;77.91
10460;BME280;54412;51.206;6.888;2023-05-10T13:32:37;100494.91;;;16.79;77.73
10460;BME280;54412;51.206;6.888;2023-05-10T13:35:04;100506.69;;;16.87;77.04
10460;BME280;54412;51.206;6.888;2023-05-10T13:37:31;100500.16;;;16.80;77.44
10460;BME280;54412;51.206;6.888;2023-05-10T13:39:57;100500.25;;;16.90;76.20